createdAt,value
2023-10-31T00:03:02.357Z,99080.16
2023-10-31T00:06:05.386Z,99075.56
2023-10-31T00:09:11.654Z,99074.97
2023-10-31T00:12:14.358Z,99071.22
2023-10-31T00:15:17.010Z,99063.03
2023-10-31T00:18:19.629Z,99059.50
2023-10-31T00:21:22.400Z,99061.41
2023-10-31T00:24:27.029Z,99057.31
2023-10-31T00:27:29.711Z,99066.03
2023-10-31T00:30:32.378Z,99054.88
2023-10-31T00:33:35.064Z,99055.97
2023-10-31T00:36:37.959Z,99055.50
2023-10-31T00:39:42.322Z,99057.44
2023-10-31T00:42:44.956Z,99054.56
2023-10-31T00:45:47.628Z,99049.69
2023-10-31T00:48:50.414Z,99040.09
2023-10-31T00:51:53.111Z,99040.84
2023-10-31T00:54:57.096Z,99040.84
2023-10-31T00:57:59.739Z,99038.41
2023-10-31T01:01:02.422Z,99031.53
2023-10-31T01:04:05.593Z,99017.69
2023-10-31T01:07:08.241Z,99008.00
2023-10-31T01:10:12.536Z,99015.91
2023-10-31T01:13:15.212Z,99021.69
2023-10-31T01:16:18.308Z,99021.28
2023-10-31T01:19:21.008Z,99020.50
2023-10-31T01:22:23.655Z,99023.78
2023-10-31T01:25:27.703Z,99013.72
2023-10-31T01:28:30.317Z,99016.00
2023-10-31T01:31:37.552Z,99014.53
2023-10-31T01:34:42.130Z,99008.34
2023-10-31T01:37:44.801Z,99011.13
2023-10-31T01:40:52.274Z,99006.78
2023-10-31T01:43:55.182Z,99011.19
2023-10-31T01:46:58.199Z,99018.16
2023-10-31T01:50:01.380Z,99015.63
2023-10-31T01:53:04.418Z,99005.97
2023-10-31T01:56:09.381Z,99003.19
2023-10-31T01:59:12.155Z,98999.97
2023-10-31T02:02:15.315Z,98993.97
2023-10-31T02:05:18.227Z,98984.00
2023-10-31T02:08:20.925Z,98982.50
2023-10-31T02:11:24.912Z,98978.88
2023-10-31T02:14:27.546Z,98978.47
2023-10-31T02:17:30.419Z,98978.50
2023-10-31T02:20:33.145Z,98962.34
2023-10-31T02:23:37.384Z,98957.25
2023-10-31T02:26:40.425Z,98955.47
2023-10-31T02:29:43.097Z,98944.56
2023-10-31T02:32:45.946Z,98940.59
2023-10-31T02:35:48.674Z,98941.19
2023-10-31T02:38:52.645Z,98938.78
2023-10-31T02:41:55.298Z,98931.22
2023-10-31T02:44:57.998Z,98923.63
2023-10-31T02:48:00.796Z,98921.31
2023-10-31T02:51:03.584Z,98920.81
2023-10-31T02:54:08.417Z,98917.50
2023-10-31T02:57:11.554Z,98905.44
2023-10-31T03:00:15.169Z,98908.00
2023-10-31T03:03:17.858Z,98901.38
2023-10-31T03:06:20.549Z,98905.56
2023-10-31T03:13:46.080Z,98910.91
2023-10-31T03:16:48.849Z,98914.28
2023-10-31T03:19:51.546Z,98905.75
2023-10-31T03:22:54.267Z,98894.28
2023-10-31T03:25:56.950Z,98888.88
2023-10-31T03:29:01.034Z,98879.19
2023-10-31T03:32:03.718Z,98887.94
2023-10-31T03:35:07.332Z,98883.25
2023-10-31T03:38:10.316Z,98883.72
2023-10-31T03:41:14.244Z,98874.00
2023-10-31T03:44:18.393Z,98878.63
2023-10-31T03:47:21.101Z,98881.31
2023-10-31T03:50:23.902Z,98885.59
2023-10-31T03:53:26.621Z,98870.72
2023-10-31T03:56:29.269Z,98879.38
2023-10-31T03:59:33.234Z,98877.97
2023-10-31T04:02:35.883Z,98867.91
2023-10-31T04:05:38.611Z,98866.56
2023-10-31T04:08:42.117Z,98865.69
2023-10-31T04:11:45.829Z,98863.72
2023-10-31T04:14:49.796Z,98860.72
2023-10-31T04:17:52.463Z,98860.22
2023-10-31T04:20:55.359Z,98860.91
2023-10-31T04:23:57.986Z,98864.81
2023-10-31T04:27:00.684Z,98857.28
2023-10-31T04:30:05.231Z,98859.47
2023-10-31T04:33:08.059Z,98858.63
2023-10-31T04:36:11.221Z,98845.97
2023-10-31T04:39:13.853Z,98849.09
2023-10-31T04:42:16.481Z,98840.72
2023-10-31T04:45:20.482Z,98842.19
2023-10-31T04:48:23.255Z,98841.06
2023-10-31T04:51:25.930Z,98838.09
2023-10-31T04:54:28.577Z,98841.94
2023-10-31T04:57:31.226Z,98834.53
2023-10-31T05:00:35.210Z,98833.75
2023-10-31T05:03:37.885Z,98830.16
2023-10-31T05:06:40.573Z,98824.13
2023-10-31T05:09:46.476Z,98822.47
2023-10-31T05:12:49.857Z,98827.38
2023-10-31T05:15:53.912Z,98822.50
2023-10-31T05:18:56.567Z,98825.94
2023-10-31T05:21:59.187Z,98825.56
2023-10-31T05:25:01.834Z,98830.81
2023-10-31T05:28:04.673Z,98829.97
2023-10-31T05:31:08.733Z,98837.84
2023-10-31T05:34:11.371Z,98840.44
2023-10-31T05:37:14.028Z,98834.19
2023-10-31T05:40:17.467Z,98837.69
2023-10-31T05:43:20.117Z,98828.66
2023-10-31T05:46:24.113Z,98830.69
2023-10-31T05:49:26.807Z,98824.97
2023-10-31T05:52:30.647Z,98825.50
2023-10-31T05:55:35.621Z,98827.38
2023-10-31T05:58:38.946Z,98822.56
2023-10-31T06:01:43.015Z,98810.53
2023-10-31T06:04:46.018Z,98819.88
2023-10-31T06:07:49.062Z,98823.41
2023-10-31T06:10:51.867Z,98813.78
2023-10-31T06:13:54.545Z,98818.56
2023-10-31T06:17:00.424Z,98820.75
2023-10-31T06:20:04.167Z,98826.41
2023-10-31T06:23:06.905Z,98823.44
2023-10-31T06:26:09.753Z,98824.41
2023-10-31T06:29:36.957Z,98820.50
2023-10-31T06:32:36.423Z,98824.00
2023-10-31T06:35:39.162Z,98822.75
2023-10-31T06:38:41.818Z,98819.19
2023-10-31T06:41:44.448Z,98816.47
2023-10-31T06:44:47.093Z,98827.44
2023-10-31T06:47:51.145Z,98825.66
2023-10-31T06:50:53.850Z,98829.75
2023-10-31T06:53:56.502Z,98837.41
2023-10-31T06:56:59.184Z,98830.44
2023-10-31T07:00:01.868Z,98832.44
2023-10-31T07:03:10.275Z,98832.63
2023-10-31T07:06:13.068Z,98844.69
2023-10-31T07:09:17.798Z,98839.88
2023-10-31T07:12:21.075Z,98842.22
2023-10-31T07:15:23.740Z,98839.81
2023-10-31T07:18:27.725Z,98849.41
2023-10-31T07:21:30.358Z,98862.69
2023-10-31T07:24:33.053Z,98855.44
2023-10-31T07:27:35.709Z,98852.41
2023-10-31T07:30:38.345Z,98865.59
2023-10-31T07:33:42.334Z,98864.25
2023-10-31T07:36:44.993Z,98867.31
2023-10-31T07:39:47.699Z,98871.03
2023-10-31T07:42:50.316Z,98868.16
2023-10-31T07:45:53.022Z,98860.75
2023-10-31T07:48:57.048Z,98875.03
2023-10-31T07:51:59.692Z,98869.22
2023-10-31T07:55:02.343Z,98872.25
2023-10-31T07:58:05.003Z,98875.78
2023-10-31T08:01:11.438Z,98874.78
2023-10-31T08:04:16.237Z,98862.81
2023-10-31T08:07:18.981Z,98867.88
2023-10-31T08:10:21.725Z,98879.63
2023-10-31T08:13:24.361Z,98869.47
2023-10-31T08:16:27.027Z,98874.06
2023-10-31T08:19:31.060Z,98867.78
2023-10-31T08:22:34.085Z,98860.41
2023-10-31T08:25:36.886Z,98864.16
2023-10-31T08:28:39.571Z,98867.88
2023-10-31T08:31:42.222Z,98862.94
2023-10-31T08:34:46.398Z,98857.38
2023-10-31T08:37:49.101Z,98865.31
2023-10-31T08:40:51.813Z,98870.91
2023-10-31T08:43:54.914Z,98873.91
2023-10-31T08:46:57.566Z,98867.66
2023-10-31T08:50:01.677Z,98875.78
2023-10-31T08:53:04.358Z,98860.88
2023-10-31T08:56:07.510Z,98863.28
2023-10-31T08:59:10.391Z,98865.34
2023-10-31T09:02:13.139Z,98865.34
2023-10-31T09:05:17.186Z,98867.63
2023-10-31T09:08:19.883Z,98877.44
2023-10-31T09:11:22.840Z,98872.13
2023-10-31T09:14:25.563Z,98872.59
2023-10-31T09:17:28.281Z,98872.59
2023-10-31T09:20:32.431Z,98877.56
2023-10-31T09:23:35.150Z,98884.31
2023-10-31T09:26:38.602Z,98893.13
2023-10-31T09:29:41.417Z,98896.53
2023-10-31T09:32:44.258Z,98906.56
2023-10-31T09:35:48.404Z,98912.84
2023-10-31T09:38:51.030Z,98918.06
2023-10-31T09:41:55.041Z,98924.97
2023-10-31T09:44:58.071Z,98923.50
2023-10-31T09:48:03.490Z,98945.84
2023-10-31T09:51:09.172Z,98966.72
2023-10-31T09:54:14.254Z,98975.28
2023-10-31T09:57:18.169Z,98988.78
2023-10-31T10:00:21.054Z,99005.28
2023-10-31T10:03:24.547Z,99009.84
2023-10-31T10:06:29.660Z,99019.41
2023-10-31T10:09:33.400Z,99027.28
2023-10-31T10:12:36.598Z,99047.38
2023-10-31T10:15:46.315Z,99064.38
2023-10-31T10:18:49.052Z,99069.78
2023-10-31T10:21:54.992Z,99089.78
2023-10-31T10:24:57.602Z,99103.69
2023-10-31T10:28:00.232Z,99120.47
2023-10-31T10:31:02.946Z,99137.88
2023-10-31T10:34:06.367Z,99128.97
2023-10-31T10:37:10.769Z,99149.97
2023-10-31T10:40:13.891Z,99159.75
2023-10-31T10:43:22.563Z,99203.09
2023-10-31T10:46:27.242Z,99192.66
2023-10-31T10:49:34.347Z,99202.66
2023-10-31T10:52:47.714Z,99207.97
2023-10-31T10:55:55.659Z,99216.56
2023-10-31T10:59:05.092Z,99230.25
2023-10-31T11:02:11.798Z,99231.66
2023-10-31T11:05:15.808Z,99253.31
2023-10-31T11:08:21.860Z,99257.03
2023-10-31T11:11:25.229Z,99267.66
2023-10-31T11:14:28.881Z,99270.31
2023-10-31T11:17:34.094Z,99276.19
2023-10-31T11:20:38.665Z,99289.34
2023-10-31T11:23:43.032Z,99294.66
2023-10-31T11:26:53.378Z,99305.72
2023-10-31T11:29:56.861Z,99310.81
2023-10-31T11:33:02.095Z,99326.25
2023-10-31T11:36:06.801Z,99328.84
2023-10-31T11:39:15.430Z,99333.34
2023-10-31T11:42:20.172Z,99340.69
2023-10-31T11:45:30.758Z,99352.72
2023-10-31T11:48:52.212Z,99353.78
2023-10-31T11:51:56.149Z,99351.72
2023-10-31T11:55:00.313Z,99356.81
2023-10-31T11:58:18.636Z,99371.19
2023-10-31T12:01:21.287Z,99374.56
2023-10-31T12:04:25.425Z,99384.44
2023-10-31T12:07:28.257Z,99395.81
2023-10-31T12:10:32.733Z,99393.59
2023-10-31T12:13:36.168Z,99396.28
2023-10-31T12:16:38.917Z,99404.09
2023-10-31T12:19:42.524Z,99412.19
2023-10-31T12:22:45.653Z,99410.38
2023-10-31T12:25:50.353Z,99419.72
2023-10-31T12:29:07.776Z,99420.66
2023-10-31T12:32:14.554Z,99427.88
2023-10-31T12:35:22.637Z,99432.19
2023-10-31T12:38:25.637Z,99433.13
2023-10-31T12:41:29.973Z,99440.69
2023-10-31T12:44:32.878Z,99447.63
2023-10-31T12:47:36.349Z,99458.06
2023-10-31T12:50:41.375Z,99457.75
2023-10-31T12:53:44.015Z,99451.97
2023-10-31T12:56:48.046Z,99455.91
2023-10-31T12:59:50.709Z,99464.97
2023-10-31T13:02:54.442Z,99471.66
2023-10-31T13:05:57.458Z,99469.50
2023-10-31T13:09:00.915Z,99477.03
2023-10-31T13:12:07.176Z,99479.50
2023-10-31T13:15:11.678Z,99482.56
2023-10-31T13:18:15.550Z,99483.53
2023-10-31T13:21:18.910Z,99492.03
2023-10-31T13:24:21.600Z,99498.13
2023-10-31T13:27:25.639Z,99502.69
2023-10-31T13:30:28.264Z,99502.56
2023-10-31T13:33:30.925Z,99500.88
2023-10-31T13:36:33.686Z,99501.44
2023-10-31T13:39:36.357Z,99512.38
2023-10-31T13:42:41.393Z,99519.50
2023-10-31T13:45:44.072Z,99519.38
2023-10-31T13:48:46.783Z,99528.06
2023-10-31T13:51:50.263Z,99537.31
2023-10-31T13:54:52.865Z,99541.38
2023-10-31T13:57:56.864Z,99542.47
2023-10-31T14:00:59.584Z,99550.78
2023-10-31T14:04:02.401Z,99550.78
2023-10-31T14:07:05.536Z,99555.66
2023-10-31T14:10:08.843Z,99558.94
2023-10-31T14:13:12.834Z,99572.69
2023-10-31T14:16:16.161Z,99584.63
2023-10-31T14:19:18.913Z,99597.72
2023-10-31T14:22:21.889Z,99604.41
2023-10-31T14:25:24.621Z,99614.19
2023-10-31T14:28:28.616Z,99622.50
2023-10-31T14:31:31.374Z,99638.38
2023-10-31T14:34:34.030Z,99641.63
2023-10-31T14:37:36.980Z,99640.34
2023-10-31T14:40:39.686Z,99649.94
2023-10-31T14:43:43.675Z,99657.31
2023-10-31T14:46:46.381Z,99660.81
2023-10-31T14:49:49.018Z,99675.78
2023-10-31T14:52:51.714Z,99670.47
2023-10-31T14:55:54.501Z,99690.94
2023-10-31T14:58:58.755Z,99692.66
2023-10-31T15:02:01.503Z,99703.88
2023-10-31T15:05:04.972Z,99710.88
2023-10-31T15:08:08.232Z,99728.84
2023-10-31T15:11:10.927Z,99732.25
2023-10-31T15:14:15.459Z,99740.69
2023-10-31T15:17:18.160Z,99735.47
2023-10-31T15:20:21.124Z,99761.09
2023-10-31T15:23:23.774Z,99754.31
2023-10-31T15:26:27.729Z,99763.22
2023-10-31T15:29:32.169Z,99776.78
2023-10-31T15:32:35.308Z,99776.78
2023-10-31T15:35:38.043Z,99787.75
2023-10-31T15:38:40.829Z,99791.88
2023-10-31T15:41:43.577Z,99799.34
2023-10-31T15:44:47.870Z,99810.66
2023-10-31T15:47:50.689Z,99823.47
2023-10-31T15:50:53.429Z,99821.63
2023-10-31T15:53:56.052Z,99831.91
2023-10-31T15:56:58.686Z,99835.03
2023-10-31T16:00:04.565Z,99849.56
2023-10-31T16:03:07.629Z,99849.09
2023-10-31T16:06:10.417Z,99854.81
2023-10-31T16:09:13.085Z,99855.56
2023-10-31T16:12:16.901Z,99865.84
2023-10-31T16:15:20.888Z,99870.06
2023-10-31T16:18:23.582Z,99883.75
2023-10-31T16:21:26.303Z,99896.22
2023-10-31T16:24:28.941Z,99890.91
2023-10-31T16:27:31.591Z,99900.69
2023-10-31T16:30:35.587Z,99906.59
2023-10-31T16:33:38.253Z,99922.44
2023-10-31T16:36:40.920Z,99928.16
2023-10-31T16:39:43.853Z,99941.72
2023-10-31T16:42:46.594Z,99950.69
2023-10-31T16:45:51.044Z,99959.78
2023-10-31T16:48:53.808Z,99969.41
2023-10-31T16:51:56.430Z,99976.75
2023-10-31T16:55:00.235Z,99985.63
2023-10-31T16:58:05.664Z,99988.09
2023-10-31T17:01:09.674Z,99994.09
2023-10-31T17:04:12.579Z,99997.66
2023-10-31T17:07:15.305Z,99989.16
2023-10-31T17:10:18.005Z,99990.78
2023-10-31T17:13:20.659Z,99993.94
2023-10-31T17:16:24.733Z,100001.03
2023-10-31T17:19:27.764Z,100017.34
2023-10-31T17:22:32.795Z,100020.59
2023-10-31T17:25:37.607Z,100023.63
2023-10-31T17:28:40.817Z,100036.19
2023-10-31T17:31:44.979Z,100036.28
2023-10-31T17:34:47.631Z,100045.03
2023-10-31T17:37:51.012Z,100052.38
2023-10-31T17:40:55.510Z,100053.78
2023-10-31T17:43:58.147Z,100065.09
2023-10-31T17:47:03.974Z,100076.41
2023-10-31T17:50:08.731Z,100085.19
2023-10-31T17:53:12.175Z,100081.72
2023-10-31T17:56:14.962Z,100099.44
2023-10-31T17:59:17.627Z,100091.09
2023-10-31T18:02:21.715Z,100098.63
2023-10-31T18:05:24.389Z,100105.91
2023-10-31T18:08:27.107Z,100105.72
2023-10-31T18:11:29.839Z,100108.63
2023-10-31T18:14:32.559Z,100111.59
2023-10-31T18:17:36.613Z,100123.53
2023-10-31T18:20:39.365Z,100118.28
2023-10-31T18:23:42.024Z,100126.59
2023-10-31T18:26:44.760Z,100131.38
2023-10-31T18:29:47.571Z,100133.06
2023-10-31T18:32:52.258Z,100138.75
2023-10-31T18:35:55.009Z,100145.72
2023-10-31T18:38:57.663Z,100148.44
2023-10-31T18:42:07.126Z,100155.53
2023-10-31T18:45:15.363Z,100156.88
2023-10-31T18:48:19.519Z,100168.19
2023-10-31T18:51:22.195Z,100166.63
2023-10-31T18:54:24.830Z,100179.38
2023-10-31T18:57:27.691Z,100179.09
2023-10-31T19:00:30.344Z,100175.34
2023-10-31T19:03:34.485Z,100178.63
2023-10-31T19:06:37.258Z,100177.44
2023-10-31T19:09:39.896Z,100182.78
2023-10-31T19:12:42.780Z,100178.97
2023-10-31T19:15:45.393Z,100180.00
2023-10-31T19:18:49.991Z,100185.06
2023-10-31T19:21:52.638Z,100176.91
2023-10-31T19:24:55.350Z,100183.00
2023-10-31T19:27:57.992Z,100185.50
2023-10-31T19:31:00.700Z,100192.50
2023-10-31T19:34:04.704Z,100207.44
2023-10-31T19:37:08.321Z,100213.53
2023-10-31T19:40:12.489Z,100209.72
2023-10-31T19:43:15.232Z,100211.16
2023-10-31T19:46:17.956Z,100205.56
2023-10-31T19:49:22.099Z,100211.09
2023-10-31T19:52:24.747Z,100203.03
2023-10-31T19:55:27.581Z,100200.41
2023-10-31T19:58:30.295Z,100211.78
2023-10-31T20:01:33.214Z,100210.53
2023-10-31T20:04:37.260Z,100211.56
2023-10-31T20:07:39.977Z,100213.56
2023-10-31T20:10:44.143Z,100214.66
2023-10-31T20:13:46.848Z,100217.22
2023-10-31T20:16:49.623Z,100223.69
2023-10-31T20:19:53.628Z,100219.41
2023-10-31T20:22:56.309Z,100231.06
2023-10-31T20:25:59.254Z,100228.13
2023-10-31T20:29:03.224Z,100237.84
2023-10-31T20:32:06.509Z,100241.53
2023-10-31T20:35:10.671Z,100243.59
2023-10-31T20:38:13.592Z,100256.00
2023-10-31T20:41:16.272Z,100248.75
2023-10-31T20:44:18.962Z,100244.97
2023-10-31T20:47:21.599Z,100244.72
2023-10-31T20:50:25.988Z,100246.34
2023-10-31T20:53:28.654Z,100244.59
2023-10-31T20:56:31.399Z,100244.41
2023-10-31T20:59:34.118Z,100242.78
2023-10-31T21:02:36.842Z,100251.16
2023-10-31T21:05:40.921Z,100246.84
2023-10-31T21:08:43.991Z,100249.31
2023-10-31T21:11:46.696Z,100256.06
2023-10-31T21:14:49.586Z,100252.09
2023-10-31T21:17:52.476Z,100248.22
2023-10-31T21:20:56.566Z,100243.00
2023-10-31T21:24:01.237Z,100245.63
2023-10-31T21:27:04.065Z,100244.53
2023-10-31T21:30:08.107Z,100245.84
2023-10-31T21:33:10.801Z,100237.16
2023-10-31T21:36:14.901Z,100233.47
2023-10-31T21:39:17.598Z,100239.88
2023-10-31T21:42:20.250Z,100237.16
2023-10-31T21:45:22.963Z,100233.09
2023-10-31T21:48:25.960Z,100248.66
2023-10-31T21:51:29.948Z,100244.22
2023-10-31T21:54:33.838Z,100254.25
2023-10-31T21:57:36.533Z,100247.22
2023-10-31T22:00:39.980Z,100247.22
2023-10-31T22:03:42.767Z,100254.94
2023-10-31T22:06:47.003Z,100257.78
2023-10-31T22:09:49.723Z,100259.97
2023-10-31T22:12:54.608Z,100253.75
2023-10-31T22:15:57.284Z,100258.59
2023-10-31T22:19:00.099Z,100260.75
2023-10-31T22:22:04.784Z,100267.66
2023-10-31T22:25:08.303Z,100262.38
2023-10-31T22:28:10.967Z,100267.66
2023-10-31T22:31:13.614Z,100259.72
2023-10-31T22:34:16.263Z,100256.69
2023-10-31T22:37:20.233Z,100256.94
2023-10-31T22:40:22.891Z,100263.66
2023-10-31T22:43:25.651Z,100253.94
2023-10-31T22:46:28.538Z,100254.44
2023-10-31T22:49:31.161Z,100259.22
2023-10-31T22:52:35.150Z,100260.28
2023-10-31T22:55:37.809Z,100263.47
2023-10-31T22:58:40.477Z,100272.16
2023-10-31T23:01:43.210Z,100259.81
2023-10-31T23:04:45.869Z,100262.97
2023-10-31T23:07:53.427Z,100268.28
2023-10-31T23:10:56.151Z,100262.97
2023-10-31T23:13:58.784Z,100261.09
2023-10-31T23:17:01.478Z,100257.59
2023-10-31T23:20:04.138Z,100264.84
2023-10-31T23:23:08.201Z,100263.81
2023-10-31T23:26:11.097Z,100260.91
2023-10-31T23:29:14.084Z,100266.44
2023-10-31T23:32:16.894Z,100259.91
2023-10-31T23:35:19.609Z,100262.88
2023-10-31T23:38:23.660Z,100264.09
2023-10-31T23:41:26.357Z,100259.31
2023-10-31T23:44:29.299Z,100268.91
2023-10-31T23:47:32.207Z,100269.88
2023-10-31T23:50:34.946Z,100261.69
2023-10-31T23:53:38.992Z,100270.31
2023-10-31T23:56:41.636Z,100274.53
2023-10-31T23:59:44.625Z,100275.41
